Time;durP1;ratioP1;P1;durP2;ratioP2;P2;SDS_P1;SDS_P2;PMS_P1;PMS_P2;Temp;Humidity;BMP_temperature;BMP_pressure;BME280_temperature;BME280_humidity;BME280_pressure;Samples;Min_cycle;Max_cycle;Signal;HPM_P1;HPM_P2
2020/12/19 00:01:53;;;;;;;23.90;16.03;;;3.40;95.50;;;;;;5083495;28;20817;-77
2020/12/19 00:04:19;;;;;;;21.40;15.30;;;3.40;94.80;;;;;;5079273;28;20521;-78
2020/12/19 00:06:46;;;;;;;23.13;15.50;;;3.30;94.70;;;;;;5081058;28;20485;-78
2020/12/19 00:09:12;;;;;;;21.20;15.30;;;3.30;94.80;;;;;;5084905;28;20454;-79
2020/12/19 00:11:43;;;;;;;21.40;15.60;;;3.30;95.10;;;;;;5081957;28;20957;-78
2020/12/19 00:14:11;;;;;;;20.40;14.77;;;3.30;95.00;;;;;;5083306;28;20837;-78
2020/12/19 00:16:40;;;;;;;20.20;14.40;;;3.40;94.20;;;;;;5082781;28;20846;-77
2020/12/19 00:19:06;;;;;;;21.70;15.63;;;3.40;94.40;;;;;;5083185;28;20474;-78
2020/12/19 00:21:35;;;;;;;19.23;15.10;;;3.40;93.90;;;;;;5081316;28;20560;-76
2020/12/19 00:24:02;;;;;;;21.20;15.90;;;3.30;93.90;;;;;;5079333;28;20454;-79
2020/12/19 00:26:36;;;;;;;22.93;15.60;;;3.30;94.20;;;;;;5080628;28;20458;-78
2020/12/19 00:29:03;;;;;;;23.23;16.10;;;3.30;93.60;;;;;;5086942;28;20449;-77
2020/12/19 00:31:31;;;;;;;22.53;16.47;;;3.30;94.00;;;;;;5084932;28;21011;-77
2020/12/19 00:33:58;;;;;;;20.97;16.00;;;3.30;94.00;;;;;;5085022;28;20466;-77
2020/12/19 00:36:26;;;;;;;23.13;16.20;;;3.30;93.60;;;;;;5078490;28;20453;-78
2020/12/19 00:38:56;;;;;;;22.60;14.70;;;3.30;93.50;;;;;;5084409;28;20454;-79
2020/12/19 00:41:26;;;;;;;21.13;15.30;;;3.40;93.80;;;;;;5088789;28;20482;-80
2020/12/19 00:43:53;;;;;;;22.60;16.33;;;3.40;93.00;;;;;;5087392;28;20465;-77
2020/12/19 00:46:20;;;;;;;21.73;15.90;;;3.40;92.80;;;;;;5081485;28;20527;-79
2020/12/19 00:48:48;;;;;;;23.43;16.50;;;3.30;93.00;;;;;;5081377;28;20544;-77
2020/12/19 00:51:16;;;;;;;20.27;15.00;;;3.40;92.70;;;;;;5075629;28;20458;-78
2020/12/19 00:53:47;;;;;;;23.43;15.90;;;3.40;92.70;;;;;;5079120;28;20537;-77
2020/12/19 00:56:21;;;;;;;21.03;14.30;;;3.40;92.50;;;;;;5082484;28;20450;-77
2020/12/19 00:58:48;;;;;;;24.90;15.73;;;3.40;92.50;;;;;;5079049;28;20462;-77
2020/12/19 01:01:17;;;;;;;22.57;15.40;;;3.30;92.80;;;;;;5079084;28;20458;-78
2020/12/19 01:03:45;;;;;;;21.20;15.00;;;3.40;92.70;;;;;;5078507;28;20540;-78
2020/12/19 01:06:15;;;;;;;22.27;15.70;;;3.30;92.50;;;;;;5087821;28;20511;-77
2020/12/19 01:08:45;;;;;;;17.53;13.60;;;3.30;92.60;;;;;;5076730;28;20443;-78
2020/12/19 01:11:14;;;;;;;19.80;14.33;;;3.30;92.50;;;;;;5075453;28;20564;-77
2020/12/19 01:13:40;;;;;;;18.53;14.30;;;3.40;92.10;;;;;;5079420;28;20516;-77
2020/12/19 01:16:08;;;;;;;20.07;14.57;;;3.30;91.80;;;;;;5082590;28;20549;-77
2020/12/19 01:18:40;;;;;;;21.23;14.50;;;3.30;92.50;;;;;;5080145;28;20457;-78
2020/12/19 01:21:11;;;;;;;20.97;13.80;;;3.30;92.20;;;;;;5093145;28;20482;-78
2020/12/19 01:23:38;;;;;;;20.13;14.77;;;3.30;92.20;;;;;;5092199;28;20468;-79
2020/12/19 01:26:05;;;;;;;20.10;13.80;;;3.30;92.10;;;;;;5092934;28;20438;-79
2020/12/19 01:28:32;;;;;;;20.67;13.80;;;3.40;91.80;;;;;;5077135;28;21014;-79
2020/12/19 01:31:02;;;;;;;18.83;14.07;;;3.40;91.70;;;;;;5081399;28;20452;-78
2020/12/19 01:33:28;;;;;;;19.20;13.57;;;3.40;91.30;;;;;;5074427;28;20462;-78
2020/12/19 01:35:55;;;;;;;21.73;14.33;;;3.40;91.40;;;;;;5084276;28;20458;-77
2020/12/19 01:38:26;;;;;;;18.40;13.80;;;3.40;91.40;;;;;;5081110;28;20516;-77
2020/12/19 01:40:55;;;;;;;21.40;14.70;;;3.40;91.30;;;;;;5079470;28;20475;-77
2020/12/19 01:43:22;;;;;;;18.23;13.70;;;3.30;91.50;;;;;;5079700;28;21146;-77
2020/12/19 01:45:49;;;;;;;22.27;15.80;;;3.30;91.90;;;;;;5079550;28;20744;-77
2020/12/19 01:48:23;;;;;;;20.10;14.40;;;3.20;92.10;;;;;;5083813;28;20481;-77
2020/12/19 01:50:52;;;;;;;21.00;14.93;;;3.20;92.50;;;;;;5076765;28;20549;-78
2020/12/19 01:53:20;;;;;;;23.10;15.67;;;3.30;92.20;;;;;;5081924;28;20453;-77
2020/12/19 01:55:48;;;;;;;22.23;15.03;;;3.10;91.50;;;;;;5077457;28;20536;-78
2020/12/19 01:58:17;;;;;;;18.50;13.90;;;3.10;92.20;;;;;;5074263;28;20444;-77
2020/12/19 02:00:45;;;;;;;20.80;15.30;;;3.20;92.20;;;;;;5074599;28;20521;-77
2020/12/19 02:03:13;;;;;;;21.03;14.27;;;3.20;91.20;;;;;;5082173;28;20450;-77
2020/12/19 02:05:42;;;;;;;19.60;14.53;;;3.20;91.40;;;;;;5075739;28;20458;-76
2020/12/19 02:08:09;;;;;;;18.93;13.63;;;3.30;91.60;;;;;;5079745;28;21000;-77
2020/12/19 02:10:36;;;;;;;19.00;13.60;;;3.10;91.40;;;;;;5077962;28;20461;-76
2020/12/19 02:13:04;;;;;;;19.13;13.80;;;3.20;91.60;;;;;;5081635;28;20459;-79
2020/12/19 02:15:41;;;;;;;18.73;13.00;;;3.20;91.30;;;;;;5090115;28;20449;-79
2020/12/19 02:18:08;;;;;;;17.50;13.57;;;3.20;91.20;;;;;;5084121;28;21028;-77
2020/12/19 02:20:35;;;;;;;18.90;13.80;;;3.10;91.20;;;;;;5081798;28;20503;-77
2020/12/19 02:23:04;;;;;;;18.37;13.63;;;3.20;91.40;;;;;;5081068;28;20540;-77
2020/12/19 02:25:32;;;;;;;18.20;13.90;;;3.10;91.60;;;;;;5080154;28;21124;-78
2020/12/19 02:28:02;;;;;;;18.93;14.23;;;3.10;91.60;;;;;;5080745;28;20473;-78
2020/12/19 02:30:28;;;;;;;18.03;13.83;;;3.20;91.90;;;;;;5082924;28;20950;-77
2020/12/19 02:32:55;;;;;;;22.10;14.20;;;3.20;91.60;;;;;;5083574;28;20451;-77
2020/12/19 02:35:21;;;;;;;17.60;12.87;;;3.20;91.10;;;;;;5089925;28;20553;-77
2020/12/19 02:37:50;;;;;;;19.27;13.57;;;3.30;91.40;;;;;;5079853;28;20498;-77
2020/12/19 02:40:16;;;;;;;21.30;14.50;;;3.20;91.10;;;;;;5075140;28;20598;-75
2020/12/19 02:42:44;;;;;;;18.57;13.63;;;3.20;91.00;;;;;;5073941;28;20505;-74
2020/12/19 02:45:11;;;;;;;18.60;13.57;;;3.20;91.30;;;;;;5077342;28;20505;-73
2020/12/19 02:47:38;;;;;;;19.53;13.90;;;3.20;91.20;;;;;;5081364;28;20447;-73
2020/12/19 02:50:05;;;;;;;19.50;14.10;;;3.20;91.00;;;;;;5078658;28;20925;-74
2020/12/19 02:52:32;;;;;;;16.83;12.17;;;3.20;91.00;;;;;;5082650;28;20540;-74
2020/12/19 02:54:59;;;;;;;17.43;12.47;;;3.20;91.00;;;;;;5078958;28;20466;-73
2020/12/19 02:57:25;;;;;;;18.60;13.90;;;3.20;90.90;;;;;;5081115;28;20537;-74
2020/12/19 02:59:53;;;;;;;15.93;12.50;;;3.20;90.80;;;;;;5077576;28;20482;-75
2020/12/19 03:02:19;;;;;;;17.53;12.50;;;3.20;90.40;;;;;;5077163;28;20556;-75
2020/12/19 03:04:45;;;;;;;18.60;13.50;;;3.20;90.30;;;;;;5076131;28;20561;-75
2020/12/19 03:07:12;;;;;;;19.60;13.57;;;3.10;90.40;;;;;;5082778;28;20451;-73
2020/12/19 03:09:46;;;;;;;15.30;11.80;;;3.10;90.40;;;;;;5084099;28;21037;-74
2020/12/19 03:12:13;;;;;;;17.60;12.53;;;3.10;90.60;;;;;;5078664;28;20452;-76
2020/12/19 03:14:39;;;;;;;15.97;12.83;;;3.10;90.60;;;;;;5077475;28;20475;-74
2020/12/19 03:17:06;;;;;;;17.23;12.80;;;3.10;90.50;;;;;;5080963;28;20483;-75
2020/12/19 03:19:33;;;;;;;20.93;12.97;;;3.10;90.60;;;;;;5072513;28;20470;-74
2020/12/19 03:21:59;;;;;;;15.80;11.57;;;3.10;90.60;;;;;;5085303;28;20462;-73
2020/12/19 03:24:26;;;;;;;18.17;12.57;;;3.00;90.70;;;;;;5079731;28;20455;-75
2020/12/19 03:26:53;;;;;;;16.57;12.50;;;3.00;90.90;;;;;;5080389;28;20448;-73
2020/12/19 03:29:19;;;;;;;17.10;13.10;;;3.00;91.10;;;;;;5081029;28;20465;-74
2020/12/19 03:31:45;;;;;;;17.17;12.63;;;3.00;91.10;;;;;;5081903;28;20545;-74
2020/12/19 03:34:15;;;;;;;17.27;12.80;;;2.90;91.10;;;;;;5081328;28;20624;-73
2020/12/19 03:36:42;;;;;;;19.80;13.03;;;2.90;91.30;;;;;;5082918;28;20938;-74
2020/12/19 03:39:10;;;;;;;16.47;11.50;;;3.00;91.30;;;;;;5078524;28;20525;-73
2020/12/19 03:41:36;;;;;;;16.67;13.00;;;3.00;90.90;;;;;;5081889;28;20457;-74
2020/12/19 03:44:03;;;;;;;19.33;11.60;;;3.00;90.90;;;;;;5081737;28;20452;-74
2020/12/19 03:46:30;;;;;;;18.10;12.70;;;3.00;90.70;;;;;;5082959;28;20458;-74
2020/12/19 03:48:56;;;;;;;18.10;12.53;;;3.10;90.70;;;;;;5084230;28;20530;-74
2020/12/19 03:51:23;;;;;;;18.57;13.40;;;3.00;90.70;;;;;;5081250;28;20454;-73
2020/12/19 03:53:50;;;;;;;17.90;13.27;;;3.00;90.90;;;;;;5078601;28;20444;-74
2020/12/19 03:56:16;;;;;;;16.87;12.83;;;3.00;91.20;;;;;;5082001;28;20492;-74
2020/12/19 03:58:42;;;;;;;16.03;11.87;;;3.00;91.10;;;;;;5079401;28;20790;-74
2020/12/19 04:01:09;;;;;;;17.30;12.87;;;3.20;91.00;;;;;;5076281;28;20994;-74
2020/12/19 04:03:35;;;;;;;17.27;12.37;;;3.00;90.80;;;;;;5075333;28;20462;-75
2020/12/19 04:06:01;;;;;;;17.20;13.20;;;3.00;90.60;;;;;;5081959;28;20979;-75
2020/12/19 04:08:29;;;;;;;17.97;12.50;;;3.00;90.90;;;;;;5077712;28;20914;-75
2020/12/19 04:10:55;;;;;;;20.30;14.33;;;3.00;90.70;;;;;;5082464;28;20495;-75
2020/12/19 04:13:22;;;;;;;19.97;13.77;;;3.00;91.10;;;;;;5081080;28;20443;-74
2020/12/19 04:15:48;;;;;;;16.90;12.20;;;3.00;91.00;;;;;;5075673;28;20558;-74
2020/12/19 04:18:15;;;;;;;20.77;14.07;;;3.00;91.00;;;;;;5081313;28;20600;-75
2020/12/19 04:20:42;;;;;;;17.60;12.33;;;3.00;91.10;;;;;;5076009;28;20475;-75
2020/12/19 04:23:08;;;;;;;18.03;12.10;;;2.90;91.60;;;;;;5076621;28;20454;-74
2020/12/19 04:25:35;;;;;;;18.30;12.33;;;2.70;92.10;;;;;;5079596;28;20434;-74
2020/12/19 04:28:01;;;;;;;17.83;12.47;;;2.80;92.90;;;;;;5078322;28;20454;-74
2020/12/19 04:30:28;;;;;;;18.57;13.13;;;2.80;92.50;;;;;;5080995;28;20472;-74
2020/12/19 04:32:55;;;;;;;19.27;14.10;;;2.90;92.70;;;;;;5078121;28;20450;-74
2020/12/19 04:35:21;;;;;;;19.43;13.03;;;2.90;92.40;;;;;;5078644;28;20496;-74
2020/12/19 04:37:47;;;;;;;18.70;12.80;;;2.90;92.40;;;;;;5080222;28;20454;-74
2020/12/19 04:40:15;;;;;;;19.73;12.27;;;2.90;92.50;;;;;;5084070;28;20468;-74
2020/12/19 04:42:49;;;;;;;17.93;12.40;;;3.00;92.00;;;;;;5078646;28;20511;-74
2020/12/19 04:45:18;;;;;;;18.90;12.83;;;2.90;92.20;;;;;;5075691;28;20489;-75
2020/12/19 04:47:45;;;;;;;20.03;12.80;;;2.90;92.20;;;;;;5073335;28;20898;-74
2020/12/19 04:50:13;;;;;;;19.73;12.90;;;2.90;92.10;;;;;;5085991;28;20444;-75
2020/12/19 04:52:40;;;;;;;18.40;13.67;;;3.00;92.00;;;;;;5074620;28;20517;-74
2020/12/19 04:55:07;;;;;;;17.90;12.30;;;2.90;91.80;;;;;;5087171;28;20461;-74
2020/12/19 04:57:34;;;;;;;17.00;12.07;;;2.90;92.30;;;;;;5083921;28;20483;-77
2020/12/19 05:00:02;;;;;;;18.80;12.27;;;2.90;91.90;;;;;;5080271;28;20469;-74
2020/12/19 05:02:29;;;;;;;19.20;12.60;;;2.80;91.90;;;;;;5079555;28;20526;-73
2020/12/19 05:05:06;;;;;;;18.73;13.07;;;2.80;92.20;;;;;;5078725;28;20451;-74
2020/12/19 05:07:34;;;;;;;21.37;13.47;;;2.80;92.40;;;;;;5079667;28;20469;-75
2020/12/19 05:10:01;;;;;;;18.83;13.37;;;2.80;93.00;;;;;;5076218;28;20525;-74
2020/12/19 05:12:27;;;;;;;19.50;12.07;;;2.80;92.20;;;;;;5077531;28;20444;-74
2020/12/19 05:14:54;;;;;;;20.10;13.33;;;2.80;92.20;;;;;;5082390;28;20449;-73
2020/12/19 05:17:21;;;;;;;16.83;12.03;;;2.80;92.10;;;;;;5072186;28;20453;-74
2020/12/19 05:19:53;;;;;;;18.20;11.43;;;2.80;92.50;;;;;;5077330;28;20495;-75
2020/12/19 05:22:20;;;;;;;18.37;12.33;;;2.80;92.10;;;;;;5078540;28;20847;-75
2020/12/19 05:24:47;;;;;;;16.57;11.37;;;2.80;92.00;;;;;;5076966;28;20459;-74
2020/12/19 05:27:13;;;;;;;14.87;10.90;;;2.80;91.80;;;;;;5076164;28;20454;-74
2020/12/19 05:29:40;;;;;;;18.63;12.37;;;2.80;92.40;;;;;;5077592;28;20553;-75
2020/12/19 05:32:06;;;;;;;18.73;12.60;;;2.80;92.20;;;;;;5082565;28;20457;-75
2020/12/19 05:34:33;;;;;;;17.53;12.37;;;2.80;91.60;;;;;;5079433;28;21137;-74
2020/12/19 05:37:01;;;;;;;17.73;12.83;;;2.80;92.00;;;;;;5081068;28;20466;-75
2020/12/19 05:39:27;;;;;;;16.03;12.50;;;2.80;91.50;;;;;;5075801;28;21058;-74
2020/12/19 05:41:54;;;;;;;18.57;12.77;;;2.70;92.10;;;;;;5074085;28;20577;-74
2020/12/19 05:44:22;;;;;;;18.37;11.50;;;2.70;91.50;;;;;;5074092;28;20985;-74
2020/12/19 05:46:51;;;;;;;16.27;11.90;;;2.70;91.80;;;;;;5075629;28;21047;-74
2020/12/19 05:49:18;;;;;;;18.43;12.03;;;2.70;91.50;;;;;;5073794;28;20502;-75
2020/12/19 05:51:45;;;;;;;17.33;12.73;;;2.90;91.90;;;;;;5079980;28;20466;-74
2020/12/19 05:54:13;;;;;;;16.37;11.37;;;2.80;91.80;;;;;;5074133;28;21017;-76
2020/12/19 05:56:42;;;;;;;16.87;12.20;;;2.80;91.30;;;;;;5074689;28;20462;-75
2020/12/19 05:59:11;;;;;;;18.50;11.50;;;2.80;91.50;;;;;;5075975;28;20457;-75
2020/12/19 06:01:41;;;;;;;16.53;11.80;;;2.80;91.20;;;;;;5078438;28;21023;-75
2020/12/19 06:04:08;;;;;;;18.17;12.00;;;2.80;91.00;;;;;;5074720;28;20494;-74
2020/12/19 06:06:38;;;;;;;15.63;12.07;;;2.80;91.40;;;;;;5077139;28;20511;-74
2020/12/19 06:09:07;;;;;;;16.00;11.80;;;2.90;91.00;;;;;;5083876;28;20475;-74
2020/12/19 06:11:42;;;;;;;15.70;11.03;;;2.80;90.60;;;;;;5073117;28;20462;-74
2020/12/19 06:14:13;;;;;;;18.27;11.80;;;2.90;90.70;;;;;;5075683;28;20438;-73
2020/12/19 06:16:46;;;;;;;18.17;12.77;;;2.80;90.50;;;;;;5076905;28;20590;-74
2020/12/19 06:19:20;;;;;;;18.87;12.00;;;2.80;90.50;;;;;;5076298;28;20494;-77
2020/12/19 06:21:50;;;;;;;18.50;12.57;;;2.80;90.60;;;;;;5074808;28;21083;-74
2020/12/19 06:24:44;;;;;;;17.13;12.93;;;2.80;90.60;;;;;;5075261;28;20472;-75
2020/12/19 06:27:27;;;;;;;20.73;14.20;;;2.80;90.50;;;;;;5075453;28;20608;-75
2020/12/19 06:29:54;;;;;;;16.40;12.50;;;2.80;90.50;;;;;;5078637;28;20840;-75
2020/12/19 06:32:22;;;;;;;19.43;13.27;;;2.80;90.40;;;;;;5074381;28;20511;-73
2020/12/19 06:34:57;;;;;;;19.33;12.60;;;2.80;90.60;;;;;;5072702;28;20845;-74
2020/12/19 06:37:26;;;;;;;19.97;12.50;;;2.80;90.40;;;;;;5070875;28;20916;-74
2020/12/19 06:40:10;;;;;;;16.23;12.40;;;2.80;90.40;;;;;;5075497;28;20483;-74
2020/12/19 06:42:36;;;;;;;18.43;12.80;;;2.80;90.40;;;;;;5076305;28;20454;-74
2020/12/19 06:45:23;;;;;;;14.00;11.10;;;2.80;90.30;;;;;;5077591;28;20540;-74
2020/12/19 06:47:50;;;;;;;17.50;13.00;;;2.80;90.20;;;;;;5078241;28;20461;-74
2020/12/19 06:50:17;;;;;;;17.60;12.57;;;2.80;89.90;;;;;;5077455;28;20453;-75
2020/12/19 06:52:57;;;;;;;17.40;11.13;;;2.70;89.90;;;;;;5078066;28;20446;-75
2020/12/19 06:55:26;;;;;;;17.43;12.57;;;2.60;89.90;;;;;;5082378;28;20448;-75
2020/12/19 06:57:54;;;;;;;13.70;10.97;;;2.60;90.20;;;;;;5072918;28;20467;-74
2020/12/19 07:00:22;;;;;;;18.20;12.43;;;2.50;90.30;;;;;;5076256;28;20478;-75
2020/12/19 07:02:53;;;;;;;16.80;10.70;;;2.50;90.70;;;;;;5074320;28;20482;-74
2020/12/19 07:05:21;;;;;;;17.23;11.90;;;2.50;90.40;;;;;;5080150;28;20460;-74
2020/12/19 07:07:48;;;;;;;16.13;11.87;;;2.50;90.60;;;;;;5069907;28;20534;-74
2020/12/19 07:10:15;;;;;;;15.50;11.70;;;2.50;90.50;;;;;;5075417;28;21027;-74
2020/12/19 07:12:43;;;;;;;13.00;10.23;;;2.50;90.70;;;;;;5076627;28;20469;-74
2020/12/19 07:15:31;;;;;;;18.47;11.83;;;2.50;90.50;;;;;;5077687;28;20461;-75
2020/12/19 07:17:58;;;;;;;17.90;12.30;;;2.60;90.30;;;;;;5078644;28;20954;-74
2020/12/19 07:20:25;;;;;;;14.00;10.00;;;2.60;89.90;;;;;;5077381;28;20881;-75
2020/12/19 07:22:51;;;;;;;15.17;10.90;;;2.60;89.50;;;;;;5079470;28;20447;-74
2020/12/19 07:25:18;;;;;;;12.97;10.27;;;2.60;89.40;;;;;;5070258;28;21189;-75
2020/12/19 07:27:44;;;;;;;11.87;10.03;;;2.50;89.30;;;;;;5075148;28;20453;-74
2020/12/19 07:30:13;;;;;;;14.97;10.70;;;2.50;90.30;;;;;;5069949;28;20512;-74
2020/12/19 07:32:39;;;;;;;15.20;10.60;;;2.60;91.40;;;;;;5078479;28;20441;-74
2020/12/19 07:35:09;;;;;;;11.30;10.10;;;2.60;90.10;;;;;;5074273;28;20476;-74
2020/12/19 07:37:36;;;;;;;14.57;9.90;;;2.70;90.40;;;;;;5077808;28;20983;-74
2020/12/19 07:40:06;;;;;;;11.83;9.70;;;2.60;88.50;;;;;;5077456;28;20478;-73
2020/12/19 07:42:33;;;;;;;13.47;10.40;;;2.70;88.20;;;;;;5082628;28;20459;-74
2020/12/19 07:44:59;;;;;;;13.20;9.53;;;2.60;87.90;;;;;;5075576;28;21013;-74
2020/12/19 07:47:27;;;;;;;12.77;10.20;;;2.60;88.10;;;;;;5084864;28;20465;-75
2020/12/19 07:49:54;;;;;;;12.87;9.53;;;2.60;88.20;;;;;;5078517;28;20530;-75
2020/12/19 07:52:22;;;;;;;13.20;10.00;;;2.70;87.90;;;;;;5077241;28;20958;-75
2020/12/19 07:54:54;;;;;;;10.30;8.80;;;2.60;88.10;;;;;;5080129;28;20449;-75
2020/12/19 07:57:21;;;;;;;11.07;8.80;;;2.60;88.10;;;;;;5084041;28;20461;-75
2020/12/19 07:59:48;;;;;;;11.20;8.83;;;2.70;87.70;;;;;;5075141;28;20473;-76
2020/12/19 08:02:16;;;;;;;9.37;8.00;;;2.80;87.30;;;;;;5089410;28;20530;-74
2020/12/19 08:04:52;;;;;;;13.77;9.57;;;2.80;86.50;;;;;;5089328;28;20482;-75
2020/12/19 08:07:20;;;;;;;11.13;9.93;;;2.80;86.90;;;;;;5084541;28;20856;-74
2020/12/19 08:09:49;;;;;;;10.00;8.43;;;2.90;86.90;;;;;;5082523;28;20451;-74
2020/12/19 08:12:15;;;;;;;8.83;7.93;;;2.90;86.30;;;;;;5085804;28;20794;-75
2020/12/19 08:14:45;;;;;;;9.70;7.63;;;2.90;85.90;;;;;;5083294;28;20558;-75
2020/12/19 08:17:13;;;;;;;9.50;8.50;;;2.90;85.60;;;;;;5089312;28;20797;-74
2020/12/19 08:19:46;;;;;;;11.73;8.53;;;2.90;85.70;;;;;;5080163;28;20448;-75
2020/12/19 08:22:13;;;;;;;8.97;7.87;;;2.90;85.40;;;;;;5076445;28;20459;-75
2020/12/19 08:24:40;;;;;;;8.83;7.90;;;3.00;84.90;;;;;;5080526;28;20453;-74
2020/12/19 08:27:36;;;;;;;8.87;7.60;;;3.00;84.70;;;;;;5082248;28;20458;-76
2020/12/19 08:30:06;;;;;;;10.07;8.30;;;3.00;83.90;;;;;;5075598;28;22383;-74
2020/12/19 08:32:34;;;;;;;9.80;8.40;;;3.00;84.20;;;;;;5082376;28;20458;-75
2020/12/19 08:35:01;;;;;;;10.27;8.13;;;3.00;84.30;;;;;;5085864;28;20490;-74
2020/12/19 08:37:27;;;;;;;9.10;7.33;;;2.90;84.00;;;;;;5087770;28;20473;-74
2020/12/19 08:40:14;;;;;;;10.73;8.30;;;2.80;84.60;;;;;;5085562;28;20453;-75
2020/12/19 08:42:41;;;;;;;8.40;7.43;;;3.00;85.70;;;;;;5089633;28;20463;-74
2020/12/19 08:45:25;;;;;;;11.03;8.57;;;2.90;84.50;;;;;;5082476;28;20523;-75
2020/12/19 08:47:55;;;;;;;9.10;8.20;;;3.00;84.70;;;;;;5083522;28;20455;-74
2020/12/19 08:50:40;;;;;;;8.67;7.27;;;3.10;83.90;;;;;;5088731;28;20972;-74
2020/12/19 08:53:17;;;;;;;9.53;8.33;;;3.00;83.50;;;;;;5079398;28;20508;-73
2020/12/19 08:55:44;;;;;;;11.03;8.90;;;3.10;83.60;;;;;;5079603;28;20461;-74
2020/12/19 08:58:24;;;;;;;9.43;8.37;;;3.20;83.80;;;;;;5085340;28;20458;-75
2020/12/19 09:00:52;;;;;;;8.70;7.80;;;3.20;82.90;;;;;;5078248;28;20458;-75
2020/12/19 09:03:26;;;;;;;8.53;7.63;;;3.10;82.90;;;;;;5074332;28;20478;-76
2020/12/19 09:06:00;;;;;;;8.30;7.50;;;3.20;82.80;;;;;;5076720;28;20435;-75
2020/12/19 09:08:32;;;;;;;9.27;8.33;;;3.30;82.80;;;;;;5078795;28;20502;-75
2020/12/19 09:10:58;;;;;;;8.13;7.13;;;3.30;81.80;;;;;;5080241;28;20443;-76
2020/12/19 09:13:26;;;;;;;9.63;8.23;;;3.40;82.40;;;;;;5076294;28;20448;-75
2020/12/19 09:15:57;;;;;;;9.40;7.37;;;3.50;82.00;;;;;;5080805;28;20483;-76
2020/12/19 09:18:25;;;;;;;8.33;6.87;;;3.40;80.90;;;;;;5078094;28;20454;-75
2020/12/19 09:20:54;;;;;;;11.80;7.77;;;3.30;81.30;;;;;;5076898;28;20467;-78
2020/12/19 09:23:21;;;;;;;9.50;8.50;;;3.40;81.40;;;;;;5071100;28;20455;-77
2020/12/19 09:25:47;;;;;;;7.43;6.73;;;3.40;81.00;;;;;;5078757;28;20451;-76
2020/12/19 09:28:14;;;;;;;8.20;7.23;;;3.40;81.10;;;;;;5083635;28;21243;-76
2020/12/19 09:30:41;;;;;;;9.50;8.20;;;3.40;81.10;;;;;;5092021;28;20820;-75
2020/12/19 09:33:11;;;;;;;8.73;7.43;;;3.50;81.00;;;;;;5074541;28;20491;-76
2020/12/19 09:35:37;;;;;;;8.13;6.97;;;3.60;80.70;;;;;;5090520;28;20956;-75
2020/12/19 09:38:05;;;;;;;9.10;7.43;;;3.70;80.40;;;;;;5076730;28;20498;-75
2020/12/19 09:40:34;;;;;;;8.07;6.70;;;3.70;79.90;;;;;;5078741;28;21067;-76
2020/12/19 09:43:01;;;;;;;8.20;7.40;;;3.70;79.80;;;;;;5075878;28;20460;-76
2020/12/19 09:45:27;;;;;;;9.13;6.20;;;3.70;79.60;;;;;;5078025;28;20949;-75
2020/12/19 09:47:56;;;;;;;8.57;7.00;;;3.80;80.00;;;;;;5083369;28;20440;-75
2020/12/19 09:50:23;;;;;;;8.47;7.50;;;3.80;79.30;;;;;;5083975;28;20470;-75
2020/12/19 09:52:50;;;;;;;8.00;7.20;;;3.70;79.20;;;;;;5087295;28;20887;-75
2020/12/19 09:55:17;;;;;;;7.77;6.87;;;3.60;79.10;;;;;;5080793;28;20455;-74
2020/12/19 09:57:44;;;;;;;7.73;6.93;;;3.60;79.60;;;;;;5070299;28;20548;-76
2020/12/19 10:00:12;;;;;;;7.73;6.97;;;3.70;79.60;;;;;;5076176;28;20470;-76
2020/12/19 10:02:39;;;;;;;7.73;6.93;;;3.80;79.40;;;;;;5082249;28;20469;-75
2020/12/19 10:05:07;;;;;;;8.93;6.70;;;3.80;78.90;;;;;;5086979;28;20450;-76
2020/12/19 10:07:34;;;;;;;9.90;8.10;;;3.70;78.80;;;;;;5089614;28;20465;-75
2020/12/19 10:10:00;;;;;;;10.60;7.77;;;3.80;78.90;;;;;;5077530;28;20459;-75
2020/12/19 10:12:27;;;;;;;11.10;8.00;;;3.60;78.60;;;;;;5081216;28;20479;-75
2020/12/19 10:14:53;;;;;;;7.97;7.17;;;3.60;78.90;;;;;;5076168;28;22791;-76
2020/12/19 10:17:22;;;;;;;8.93;7.30;;;3.60;79.80;;;;;;5077610;28;21066;-75
2020/12/19 10:19:49;;;;;;;7.33;6.57;;;3.70;79.50;;;;;;5082547;28;20479;-75
2020/12/19 10:22:17;;;;;;;8.63;7.73;;;3.80;79.00;;;;;;5086190;28;20446;-76
2020/12/19 10:24:43;;;;;;;8.97;7.20;;;3.70;78.80;;;;;;5083514;28;20458;-75
2020/12/19 10:27:09;;;;;;;9.13;7.10;;;3.80;78.90;;;;;;5087702;28;20486;-74
2020/12/19 10:29:36;;;;;;;8.20;7.30;;;3.80;78.50;;;;;;5081207;28;20576;-76
2020/12/19 10:32:06;;;;;;;7.83;6.47;;;3.70;78.70;;;;;;5087769;28;20463;-75
2020/12/19 10:34:33;;;;;;;9.90;8.00;;;3.60;79.00;;;;;;5080911;28;20483;-75
2020/12/19 10:36:59;;;;;;;11.33;9.10;;;3.80;79.00;;;;;;5078889;28;20464;-75
2020/12/19 10:39:27;;;;;;;17.00;13.87;;;4.00;78.70;;;;;;5086589;28;20457;-78
2020/12/19 10:41:53;;;;;;;9.63;8.50;;;4.10;78.20;;;;;;5092775;28;20464;-78
2020/12/19 10:44:21;;;;;;;9.43;7.80;;;4.10;78.00;;;;;;5082285;28;20508;-78
2020/12/19 10:46:47;;;;;;;9.97;7.87;;;4.00;77.80;;;;;;5092088;28;20447;-79
2020/12/19 10:49:14;;;;;;;8.80;6.77;;;3.90;78.30;;;;;;5092978;28;20461;-78
2020/12/19 10:51:41;;;;;;;11.50;7.73;;;3.70;78.70;;;;;;5092830;28;20454;-78
2020/12/19 10:54:07;;;;;;;9.37;8.10;;;3.90;78.60;;;;;;5091129;28;20453;-77
2020/12/19 10:56:35;;;;;;;10.00;8.57;;;4.00;78.20;;;;;;5086541;28;20640;-79
2020/12/19 10:59:03;;;;;;;11.17;8.10;;;4.20;78.00;;;;;;5082895;28;20487;-78
2020/12/19 11:01:29;;;;;;;8.83;7.90;;;4.40;77.60;;;;;;5080751;28;20854;-79
2020/12/19 11:03:56;;;;;;;10.83;8.47;;;4.30;77.30;;;;;;5083987;28;21179;-78
2020/12/19 11:06:24;;;;;;;9.37;7.87;;;4.30;77.30;;;;;;5081336;28;20446;-78
2020/12/19 11:08:51;;;;;;;8.97;8.00;;;4.30;77.10;;;;;;5083901;28;20458;-78
2020/12/19 11:11:18;;;;;;;11.80;7.87;;;4.30;77.60;;;;;;5085073;28;20512;-77
2020/12/19 11:13:46;;;;;;;9.93;8.03;;;4.40;77.10;;;;;;5078509;28;20467;-78
2020/12/19 11:16:20;;;;;;;9.23;8.17;;;4.60;76.90;;;;;;5080166;28;20580;-77
2020/12/19 11:18:47;;;;;;;9.13;8.07;;;4.70;76.90;;;;;;5087899;28;20453;-78
2020/12/19 11:21:17;;;;;;;9.33;8.10;;;4.70;76.30;;;;;;5097641;28;20972;-79
2020/12/19 11:23:43;;;;;;;10.10;7.90;;;4.80;76.20;;;;;;5088520;28;20451;-79
2020/12/19 11:26:10;;;;;;;9.97;8.00;;;4.80;76.20;;;;;;5079378;28;20455;-78
2020/12/19 11:28:37;;;;;;;10.20;8.70;;;4.80;75.90;;;;;;5083949;28;20922;-78
2020/12/19 11:31:05;;;;;;;9.90;8.37;;;4.90;75.80;;;;;;5087482;28;20443;-78
2020/12/19 11:33:31;;;;;;;10.47;8.80;;;4.90;75.40;;;;;;5088336;28;20798;-77
2020/12/19 11:35:59;;;;;;;11.97;9.57;;;4.90;75.20;;;;;;5087586;28;20448;-79
2020/12/19 11:38:26;;;;;;;9.47;8.10;;;5.00;75.80;;;;;;5082915;28;20982;-78
2020/12/19 11:40:52;;;;;;;11.17;8.97;;;5.00;75.30;;;;;;5088270;28;21012;-76
2020/12/19 11:43:19;;;;;;;10.73;8.87;;;4.90;75.10;;;;;;5088245;28;20460;-77
2020/12/19 11:45:45;;;;;;;10.67;9.57;;;4.90;75.30;;;;;;5078256;28;20527;-77
2020/12/19 11:48:13;;;;;;;11.93;9.17;;;4.90;75.00;;;;;;5080556;28;20453;-78
2020/12/19 11:50:39;;;;;;;10.00;9.00;;;5.00;75.10;;;;;;5080264;28;20448;-77
2020/12/19 11:53:06;;;;;;;11.13;8.53;;;5.10;75.00;;;;;;5085566;28;20449;-78
2020/12/19 11:55:33;;;;;;;11.70;10.50;;;5.10;74.90;;;;;;5079810;28;20447;-77
2020/12/19 11:57:59;;;;;;;11.67;9.90;;;5.00;74.80;;;;;;5081861;28;20484;-77
2020/12/19 12:00:26;;;;;;;11.47;9.93;;;4.90;74.80;;;;;;5082372;28;20467;-77
2020/12/19 12:02:52;;;;;;;12.33;9.70;;;5.00;75.00;;;;;;5081755;28;20454;-77
2020/12/19 12:05:19;;;;;;;10.23;8.73;;;5.00;74.90;;;;;;5082768;28;20489;-76
2020/12/19 12:07:46;;;;;;;10.40;9.30;;;5.00;74.80;;;;;;5076345;28;20480;-75
2020/12/19 12:10:12;;;;;;;11.27;9.93;;;5.00;74.70;;;;;;5081514;28;20454;-76
2020/12/19 12:12:42;;;;;;;11.60;8.87;;;5.00;74.80;;;;;;5080073;28;20459;-77
2020/12/19 12:15:09;;;;;;;11.40;9.80;;;5.10;74.90;;;;;;5083737;28;20462;-75
2020/12/19 12:17:35;;;;;;;10.40;8.67;;;5.10;74.80;;;;;;5085230;28;20444;-76
2020/12/19 12:20:02;;;;;;;10.50;8.70;;;5.00;74.80;;;;;;5087789;28;20540;-76
2020/12/19 12:22:30;;;;;;;10.37;8.93;;;5.00;74.90;;;;;;5083266;28;20478;-77
2020/12/19 12:24:56;;;;;;;10.20;8.70;;;5.10;74.90;;;;;;5083184;28;20458;-74
2020/12/19 12:27:23;;;;;;;11.53;9.70;;;5.10;74.80;;;;;;5078396;28;20516;-75
2020/12/19 12:29:50;;;;;;;10.17;9.03;;;5.20;74.70;;;;;;5075850;28;20463;-74
2020/12/19 12:32:16;;;;;;;10.53;9.40;;;5.20;74.50;;;;;;5078598;28;20456;-76
2020/12/19 12:34:43;;;;;;;10.50;9.07;;;5.20;74.50;;;;;;5076863;28;20967;-77
2020/12/19 12:37:13;;;;;;;15.60;9.30;;;5.20;74.50;;;;;;5082055;28;20461;-76
2020/12/19 12:39:40;;;;;;;11.93;8.97;;;5.30;74.30;;;;;;5081570;28;20513;-77
2020/12/19 12:42:07;;;;;;;10.93;8.90;;;5.20;74.40;;;;;;5076672;28;20472;-77
2020/12/19 12:44:36;;;;;;;12.80;10.03;;;5.20;74.30;;;;;;5074075;28;20456;-75
2020/12/19 12:47:04;;;;;;;10.77;7.93;;;5.30;74.50;;;;;;5085522;28;20480;-77
2020/12/19 12:49:32;;;;;;;11.93;9.03;;;5.20;74.40;;;;;;5091009;28;20541;-77